Perkinstown, Wisconsin
Current Conditions -  °F | °C
As of 7:55 AM on Monday 24 Nov 2014 (Local Time) from KMDZ Reporting Station
Light Snow Light Snow  
Wind Chill: 23°   Ceiling: 600
Heat Index: 32°   Visibility: 3mi
Dew Point: 32°   Wind: 12mph
Humidity: 99%   Direction: 310°NW
Pressure: 29.11"   Gusts: NA
Location:  45.2044°N, 90.4212°W
Report Text: KMDZ 241355Z AUTO 31010KT 3SM -SN OVC006 00/00 A2911 RMK AO2 P0001 T00020000
Loading
Personal Weather Stations






























Interactive Weather Map New forecast layout! Learn more

10-Day Weather Forecast

Advertisements
Track Severe Weather on mobile